createdAt,value
2024-05-09T00:02:08.836Z,14.56
2024-05-09T00:04:36.004Z,14.63
2024-05-09T00:07:02.858Z,14.65
2024-05-09T00:09:29.556Z,14.69
2024-05-09T00:11:56.343Z,14.70
2024-05-09T00:14:23.088Z,14.73
2024-05-09T00:16:49.988Z,14.71
2024-05-09T00:19:16.817Z,14.71
2024-05-09T00:21:44.090Z,14.75
2024-05-09T00:24:10.994Z,14.70
2024-05-09T00:26:37.803Z,14.73
2024-05-09T00:29:04.554Z,14.65
2024-05-09T00:31:31.220Z,14.68
2024-05-09T00:33:58.067Z,14.64
2024-05-09T00:36:24.744Z,14.55
2024-05-09T00:38:51.414Z,14.48
2024-05-09T00:41:19.859Z,14.52
2024-05-09T00:43:46.803Z,14.42
2024-05-09T00:46:13.867Z,14.42
2024-05-09T00:48:40.746Z,14.50
2024-05-09T00:51:07.880Z,14.49
2024-05-09T00:53:35.023Z,14.41
2024-05-09T00:56:01.968Z,14.42
2024-05-09T00:58:30.568Z,14.51
2024-05-09T01:01:00.199Z,14.56
2024-05-09T01:03:27.613Z,14.63
2024-05-09T01:05:54.766Z,14.69
2024-05-09T01:08:21.782Z,14.64
2024-05-09T01:10:48.888Z,14.49
2024-05-09T01:13:15.810Z,14.55
2024-05-09T01:15:43.316Z,14.60
2024-05-09T01:18:12.463Z,14.53
2024-05-09T01:20:43.269Z,14.57
2024-05-09T01:23:14.377Z,14.55
2024-05-09T01:25:42.846Z,14.44
2024-05-09T01:28:09.664Z,14.44
2024-05-09T01:30:37.860Z,14.44
2024-05-09T01:33:07.768Z,14.41
2024-05-09T01:35:36.581Z,14.48
2024-05-09T01:38:03.736Z,14.47
2024-05-09T01:40:37.274Z,14.36
2024-05-09T01:43:07.182Z,14.38
2024-05-09T01:45:33.999Z,14.33
2024-05-09T01:48:01.453Z,14.38
2024-05-09T01:50:37.981Z,14.44
2024-05-09T01:53:09.541Z,14.51
2024-05-09T01:55:36.454Z,14.52
2024-05-09T01:58:03.209Z,14.56
2024-05-09T02:00:38.651Z,14.61
2024-05-09T02:03:11.262Z,14.69
2024-05-09T02:05:40.399Z,14.75
2024-05-09T02:08:07.415Z,14.76
2024-05-09T02:10:34.171Z,14.78
2024-05-09T02:13:01.163Z,14.79
2024-05-09T02:15:27.984Z,14.86
2024-05-09T02:17:54.746Z,14.90
2024-05-09T02:22:51.203Z,14.80
2024-05-09T02:25:19.063Z,14.79
2024-05-09T02:27:45.735Z,14.79
2024-05-09T02:30:18.644Z,14.82
2024-05-09T02:32:52.961Z,14.84
2024-05-09T02:35:19.728Z,14.88
2024-05-09T02:37:46.471Z,14.95
2024-05-09T02:40:15.002Z,15.03
2024-05-09T02:42:44.967Z,15.04
2024-05-09T02:45:11.642Z,15.05
2024-05-09T02:47:38.473Z,15.09
2024-05-09T02:50:07.789Z,15.10
2024-05-09T02:52:34.635Z,15.09
2024-05-09T02:55:01.309Z,15.14
2024-05-09T02:57:27.990Z,15.17
2024-05-09T02:59:54.764Z,15.21
2024-05-09T03:02:21.513Z,15.21
2024-05-09T03:04:48.366Z,15.23
2024-05-09T03:07:15.045Z,15.28
2024-05-09T03:09:46.901Z,15.34
2024-05-09T03:12:13.768Z,15.37
2024-05-09T03:14:40.477Z,15.41
2024-05-09T03:17:07.882Z,15.38
2024-05-09T03:19:37.783Z,15.38
2024-05-09T03:22:04.840Z,15.40
2024-05-09T03:24:31.401Z,15.41
2024-05-09T03:26:58.060Z,15.41
2024-05-09T03:29:25.031Z,15.36
2024-05-09T03:31:52.146Z,15.39
2024-05-09T03:34:18.961Z,15.45
2024-05-09T03:36:45.733Z,15.46
2024-05-09T03:39:12.463Z,15.47
2024-05-09T03:41:39.342Z,15.51
2024-05-09T03:44:06.094Z,15.54
2024-05-09T03:46:37.855Z,15.54
2024-05-09T03:49:04.985Z,15.52
2024-05-09T03:51:31.820Z,15.52
2024-05-09T03:53:58.635Z,15.55
2024-05-09T03:56:25.531Z,15.57
2024-05-09T03:58:52.267Z,15.60
2024-05-09T04:01:19.161Z,15.53
2024-05-09T04:03:46.114Z,15.54
2024-05-09T04:06:20.318Z,15.58
2024-05-09T04:08:47.001Z,15.59
2024-05-09T04:11:13.889Z,15.64
2024-05-09T04:13:40.633Z,15.64
2024-05-09T04:16:10.433Z,15.66
2024-05-09T04:18:37.711Z,15.69
2024-05-09T04:21:05.207Z,15.72
2024-05-09T04:23:32.082Z,15.75
2024-05-09T04:25:58.785Z,15.74
2024-05-09T04:28:26.243Z,15.74
2024-05-09T04:30:52.905Z,15.78
2024-05-09T04:33:20.855Z,15.83
2024-05-09T04:35:49.515Z,15.83
2024-05-09T04:38:16.398Z,15.82
2024-05-09T04:40:43.556Z,15.77
2024-05-09T04:43:19.667Z,15.77
2024-05-09T04:45:46.545Z,15.78
2024-05-09T04:48:13.576Z,15.76
2024-05-09T04:50:40.542Z,15.81
2024-05-09T04:53:10.070Z,15.81
2024-05-09T04:55:38.276Z,15.83
2024-05-09T04:58:08.552Z,15.85
2024-05-09T05:00:37.513Z,15.91
2024-05-09T05:03:07.920Z,15.91
2024-05-09T05:05:40.427Z,15.96
2024-05-09T05:08:18.434Z,16.01
2024-05-09T05:10:47.167Z,16.05
2024-05-09T05:13:23.743Z,16.10
2024-05-09T05:15:58.310Z,16.14
2024-05-09T05:18:27.258Z,16.14
2024-05-09T05:20:56.011Z,16.12
2024-05-09T05:23:23.508Z,16.16
2024-05-09T05:25:52.807Z,16.04
2024-05-09T05:28:20.018Z,16.11
2024-05-09T05:30:46.870Z,16.14
2024-05-09T05:33:14.562Z,16.24
2024-05-09T05:35:42.064Z,16.45
2024-05-09T05:38:09.820Z,16.73
2024-05-09T05:40:38.681Z,16.82
2024-05-09T05:43:10.746Z,16.85
2024-05-09T05:45:38.256Z,16.94
2024-05-09T05:48:06.969Z,17.02
2024-05-09T05:50:37.283Z,17.04
2024-05-09T05:53:10.204Z,17.05
2024-05-09T05:55:41.221Z,17.12
2024-05-09T05:58:12.226Z,17.07
2024-05-09T06:00:40.996Z,17.05
2024-05-09T06:03:09.969Z,17.02
2024-05-09T06:05:40.045Z,17.09
2024-05-09T06:08:07.537Z,17.16
2024-05-09T06:10:38.518Z,17.22
2024-05-09T06:13:07.834Z,17.41
2024-05-09T06:15:34.612Z,17.61
2024-05-09T06:18:01.862Z,17.72
2024-05-09T06:20:35.596Z,17.89
2024-05-09T06:23:08.512Z,18.12
2024-05-09T06:25:36.305Z,18.42
2024-05-09T06:28:03.619Z,18.61
2024-05-09T06:30:38.401Z,18.82
2024-05-09T06:33:10.140Z,18.91
2024-05-09T06:35:38.300Z,19.52
2024-05-09T06:38:06.087Z,19.45
2024-05-09T06:40:37.578Z,19.38
2024-05-09T06:43:17.925Z,19.26
2024-05-09T06:45:49.963Z,19.10
2024-05-09T06:48:20.734Z,18.90
2024-05-09T06:50:48.228Z,18.85
2024-05-09T06:53:15.947Z,18.75
2024-05-09T06:55:43.346Z,18.64
2024-05-09T06:58:10.150Z,18.61
2024-05-09T07:00:39.910Z,18.52
2024-05-09T07:03:14.917Z,18.28
2024-05-09T07:05:44.013Z,17.93
2024-05-09T07:08:11.490Z,17.85
2024-05-09T07:10:38.576Z,17.88
2024-05-09T07:13:13.285Z,17.86
2024-05-09T07:15:41.213Z,17.81
2024-05-09T07:18:17.800Z,17.80
2024-05-09T07:20:46.890Z,17.79
2024-05-09T07:23:14.273Z,17.85
2024-05-09T07:25:41.851Z,17.90
2024-05-09T07:28:14.904Z,17.90
2024-05-09T07:30:42.200Z,18.03
2024-05-09T07:33:09.141Z,18.20
2024-05-09T07:35:36.119Z,18.44
2024-05-09T07:38:03.070Z,18.54
2024-05-09T07:40:35.797Z,18.49
2024-05-09T07:43:14.454Z,18.66
2024-05-09T07:45:50.691Z,18.97
2024-05-09T07:53:38.956Z,19.57
2024-05-09T07:56:09.381Z,19.65
2024-05-09T07:58:36.854Z,19.75
2024-05-09T08:01:03.664Z,19.84
2024-05-09T08:03:31.644Z,19.90
2024-05-09T08:05:58.357Z,19.95
2024-05-09T08:08:24.964Z,19.81
2024-05-09T08:10:51.763Z,19.77
2024-05-09T08:13:18.729Z,19.73
2024-05-09T08:15:45.912Z,19.68
2024-05-09T08:18:12.906Z,19.66
2024-05-09T08:20:41.493Z,19.56
2024-05-09T08:23:08.830Z,19.56
2024-05-09T08:25:35.620Z,19.59
2024-05-09T08:28:04.777Z,19.63
2024-05-09T08:30:36.748Z,19.59
2024-05-09T08:33:06.493Z,19.47
2024-05-09T08:35:34.442Z,19.37
2024-05-09T08:38:05.549Z,19.20
2024-05-09T08:40:35.914Z,19.42
2024-05-09T08:43:07.961Z,19.69
2024-05-09T08:45:35.968Z,19.81
2024-05-09T08:48:07.768Z,19.97
2024-05-09T08:50:39.177Z,19.98
2024-05-09T09:04:38.853Z,20.10
2024-05-09T09:07:06.629Z,20.12
2024-05-09T09:09:34.564Z,20.05
2024-05-09T09:12:01.388Z,20.07
2024-05-09T09:14:28.133Z,20.11
2024-05-09T09:16:56.561Z,20.14
2024-05-09T09:19:23.579Z,20.13
2024-05-09T09:21:50.420Z,20.18
2024-05-09T09:24:17.009Z,20.19
2024-05-09T09:26:45.330Z,20.20
2024-05-09T09:29:12.107Z,20.18
2024-05-09T09:31:41.488Z,20.27
2024-05-09T09:34:08.929Z,20.34
2024-05-09T09:36:38.587Z,20.36
2024-05-09T09:39:06.722Z,20.46
2024-05-09T09:41:35.356Z,20.55
2024-05-09T09:44:04.174Z,20.67
2024-05-09T09:46:31.967Z,20.61
2024-05-09T09:48:58.918Z,20.56
2024-05-09T09:51:26.438Z,20.67
2024-05-09T09:53:53.553Z,20.76
2024-05-09T09:56:21.491Z,20.86
2024-05-09T09:58:48.909Z,20.90
2024-05-09T10:01:15.800Z,20.99
2024-05-09T10:03:42.773Z,21.09
2024-05-09T10:06:11.978Z,21.13
2024-05-09T10:08:39.640Z,21.12
2024-05-09T10:11:06.828Z,21.18
2024-05-09T10:13:34.949Z,21.27
2024-05-09T10:16:09.119Z,21.25
2024-05-09T10:18:40.320Z,21.27
2024-05-09T10:21:17.605Z,21.35
2024-05-09T10:23:56.039Z,21.36
2024-05-09T10:26:36.962Z,21.37
2024-05-09T10:29:18.038Z,21.42
2024-05-09T10:31:46.781Z,21.45
2024-05-09T10:34:21.240Z,21.53
2024-05-09T10:36:52.899Z,21.38
2024-05-09T10:39:21.042Z,21.42
2024-05-09T10:41:49.310Z,21.36
2024-05-09T10:44:17.153Z,21.38
2024-05-09T10:46:45.300Z,21.39
2024-05-09T10:49:15.174Z,21.43
2024-05-09T10:51:42.426Z,21.37
2024-05-09T10:54:09.130Z,21.37
2024-05-09T10:56:35.745Z,21.37
2024-05-09T10:59:05.783Z,21.48
2024-05-09T11:01:32.714Z,21.52
2024-05-09T11:03:59.708Z,21.57
2024-05-09T11:06:26.636Z,21.62
2024-05-09T11:08:53.649Z,21.64
2024-05-09T11:11:20.680Z,21.68
2024-05-09T11:13:47.436Z,21.69
2024-05-09T11:16:20.150Z,21.72
2024-05-09T11:18:58.243Z,21.77
2024-05-09T11:21:25.553Z,21.76
2024-05-09T11:23:52.826Z,21.80
2024-05-09T11:26:21.522Z,21.71
2024-05-09T11:28:48.790Z,21.71
2024-05-09T11:31:15.619Z,21.73
2024-05-09T11:33:44.655Z,21.73
2024-05-09T11:36:11.790Z,21.71
2024-05-09T11:38:38.602Z,21.78
2024-05-09T11:41:06.013Z,21.78
2024-05-09T11:43:33.364Z,21.69
2024-05-09T11:46:01.055Z,21.71
2024-05-09T11:48:28.236Z,21.73
2024-05-09T11:50:55.729Z,21.68
2024-05-09T11:53:22.822Z,21.77
2024-05-09T11:55:49.776Z,21.84
2024-05-09T11:58:18.227Z,21.73
2024-05-09T12:00:46.102Z,21.74
2024-05-09T12:03:13.172Z,21.72
2024-05-09T12:05:40.016Z,21.73
2024-05-09T12:08:07.332Z,21.72
2024-05-09T12:10:35.999Z,21.69
2024-05-09T12:13:05.678Z,21.68
2024-05-09T12:15:36.284Z,21.70
2024-05-09T12:18:05.010Z,21.70
2024-05-09T12:20:37.506Z,21.73
2024-05-09T12:23:08.004Z,21.73
2024-05-09T12:25:36.407Z,21.75
2024-05-09T12:28:03.521Z,21.77
2024-05-09T12:30:36.661Z,21.80
2024-05-09T12:33:08.403Z,21.81
2024-05-09T12:35:35.548Z,21.71
2024-05-09T12:38:02.664Z,21.76
2024-05-09T12:40:36.234Z,21.78
2024-05-09T12:43:07.232Z,21.84
2024-05-09T12:45:34.565Z,21.76
2024-05-09T12:48:01.363Z,21.84
2024-05-09T12:50:32.674Z,21.90
2024-05-09T12:53:02.095Z,21.87
2024-05-09T12:55:33.966Z,21.96
2024-05-09T12:58:08.278Z,21.93
2024-05-09T13:00:35.410Z,21.97
2024-05-09T13:03:02.348Z,21.98
2024-05-09T13:05:29.697Z,21.97
2024-05-09T13:07:57.210Z,21.89
2024-05-09T13:10:31.713Z,21.89
2024-05-09T13:13:01.044Z,21.89
2024-05-09T13:15:28.723Z,21.94
2024-05-09T13:18:02.181Z,21.94
2024-05-09T13:20:35.720Z,21.95
2024-05-09T13:23:05.495Z,21.94
2024-05-09T13:25:35.018Z,21.95
2024-05-09T13:28:03.022Z,21.92
2024-05-09T13:30:38.531Z,21.99
2024-05-09T13:33:14.266Z,21.99
2024-05-09T13:35:46.886Z,21.98
2024-05-09T13:38:16.791Z,22.02
2024-05-09T13:40:43.548Z,21.92
2024-05-09T13:43:10.382Z,21.91
2024-05-09T13:45:37.190Z,21.84
2024-05-09T13:48:06.688Z,21.71
2024-05-09T13:50:36.185Z,21.75
2024-05-09T13:53:08.217Z,21.77
2024-05-09T13:55:38.362Z,21.84
2024-05-09T13:58:05.957Z,21.82
2024-05-09T14:00:43.799Z,21.84
2024-05-09T14:03:15.897Z,21.80
2024-05-09T14:05:43.292Z,21.81
2024-05-09T14:08:10.274Z,21.81
2024-05-09T14:10:43.522Z,21.77
2024-05-09T14:13:11.145Z,21.76
2024-05-09T14:15:38.034Z,21.82
2024-05-09T14:18:05.272Z,21.87
2024-05-09T14:20:32.707Z,21.84
2024-05-09T14:23:00.765Z,21.79
2024-05-09T14:25:32.438Z,21.79
2024-05-09T14:28:00.091Z,21.76
2024-05-09T14:30:34.772Z,21.80
2024-05-09T14:33:05.855Z,21.84
2024-05-09T14:35:33.369Z,21.77
2024-05-09T14:38:00.040Z,21.76
2024-05-09T14:40:37.056Z,21.69
2024-05-09T14:43:08.726Z,21.72
2024-05-09T14:45:35.828Z,21.73
2024-05-09T14:48:03.979Z,21.68
2024-05-09T14:50:36.213Z,21.64
2024-05-09T14:53:07.380Z,21.54
2024-05-09T14:55:37.033Z,21.56
2024-05-09T14:58:07.764Z,21.48
2024-05-09T15:00:39.420Z,21.41
2024-05-09T15:03:08.704Z,21.35
2024-05-09T15:05:35.580Z,21.38
2024-05-09T15:08:07.125Z,21.40
2024-05-09T15:10:36.240Z,21.41
2024-05-09T15:13:04.536Z,21.35
2024-05-09T15:15:31.618Z,21.38
2024-05-09T15:17:58.943Z,21.30
2024-05-09T15:20:33.126Z,21.31
2024-05-09T15:23:02.809Z,21.41
2024-05-09T15:25:29.806Z,21.43
2024-05-09T15:27:56.796Z,21.49
2024-05-09T15:30:30.890Z,21.55
2024-05-09T15:33:00.891Z,21.54
2024-05-09T15:35:28.007Z,21.57
2024-05-09T15:37:55.108Z,21.61
2024-05-09T15:40:31.038Z,21.64
2024-05-09T15:43:05.746Z,21.64
2024-05-09T15:45:32.855Z,21.64
2024-05-09T15:48:00.399Z,21.67
2024-05-09T15:50:36.303Z,21.65
2024-05-09T15:53:06.831Z,21.58
2024-05-09T15:55:34.822Z,21.55
2024-05-09T15:58:03.068Z,21.54
2024-05-09T16:00:37.525Z,21.48
2024-05-09T16:03:08.641Z,21.39
2024-05-09T16:05:37.685Z,21.40
2024-05-09T16:08:05.745Z,21.40
2024-05-09T16:10:34.342Z,21.39
2024-05-09T16:13:02.662Z,21.40
2024-05-09T16:15:30.276Z,21.41
2024-05-09T16:17:57.335Z,21.39
2024-05-09T16:22:54.543Z,21.40
2024-05-09T16:25:21.432Z,21.42
2024-05-09T16:27:48.481Z,21.42
2024-05-09T16:30:24.149Z,21.42
2024-05-09T16:32:55.215Z,21.39
2024-05-09T16:35:22.066Z,21.40
2024-05-09T16:37:48.978Z,21.40
2024-05-09T16:40:24.946Z,21.38
2024-05-09T16:43:02.978Z,21.31
2024-05-09T16:45:29.770Z,21.28
2024-05-09T16:47:56.910Z,21.20
2024-05-09T16:50:29.382Z,21.11
2024-05-09T16:53:00.110Z,21.03
2024-05-09T16:55:27.231Z,21.03
2024-05-09T16:57:55.407Z,21.01
2024-05-09T17:00:31.561Z,21.01
2024-05-09T17:03:07.189Z,20.86
2024-05-09T17:05:36.123Z,20.83
2024-05-09T17:08:03.462Z,20.74
2024-05-09T17:10:33.632Z,20.60
2024-05-09T17:13:06.711Z,20.51
2024-05-09T17:15:35.375Z,20.42
2024-05-09T17:18:03.336Z,20.24
2024-05-09T17:20:34.491Z,20.15
2024-05-09T17:23:04.571Z,19.96
2024-05-09T17:25:31.944Z,19.89
2024-05-09T17:28:05.439Z,19.63
2024-05-09T17:30:37.641Z,19.53
2024-05-09T17:33:08.000Z,19.46
2024-05-09T17:35:36.172Z,19.32
2024-05-09T17:38:03.395Z,19.14
2024-05-09T17:40:34.951Z,18.99
2024-05-09T17:43:04.929Z,18.92
2024-05-09T17:45:32.419Z,18.82
2024-05-09T17:47:59.851Z,18.77
2024-05-09T17:50:34.743Z,18.71
2024-05-09T17:53:03.807Z,18.64
2024-05-09T17:55:30.535Z,18.55
2024-05-09T17:57:57.469Z,18.45
2024-05-09T18:00:33.749Z,18.32
2024-05-09T18:03:06.394Z,18.17
2024-05-09T18:05:35.221Z,18.12
2024-05-09T18:08:02.363Z,18.06
2024-05-09T18:10:35.506Z,17.97
2024-05-09T18:13:06.254Z,17.88
2024-05-09T18:15:33.771Z,17.79
2024-05-09T18:18:01.612Z,17.75
2024-05-09T18:20:37.735Z,17.70
2024-05-09T18:23:10.481Z,17.68
2024-05-09T18:25:37.359Z,17.64
2024-05-09T18:28:04.499Z,17.59
2024-05-09T18:30:34.656Z,17.54
2024-05-09T18:33:04.752Z,17.50
2024-05-09T18:35:32.542Z,17.45
2024-05-09T18:37:59.337Z,17.41
2024-05-09T18:40:33.005Z,17.37
2024-05-09T18:43:03.585Z,17.31
2024-05-09T18:45:30.635Z,17.30
2024-05-09T18:47:57.970Z,17.23
2024-05-09T18:50:32.526Z,17.25
2024-05-09T18:53:06.280Z,17.24
2024-05-09T18:55:33.326Z,17.19
2024-05-09T18:58:00.455Z,17.16
2024-05-09T19:00:34.343Z,17.14
2024-05-09T19:03:06.224Z,17.08
2024-05-09T19:05:36.066Z,17.07
2024-05-09T19:08:03.354Z,17.03
2024-05-09T19:10:34.337Z,16.96
2024-05-09T19:13:06.704Z,16.91
2024-05-09T19:15:37.670Z,16.82
2024-05-09T19:18:04.935Z,16.80
2024-05-09T19:20:35.959Z,16.76
2024-05-09T19:23:06.613Z,16.71
2024-05-09T19:25:34.607Z,16.68
2024-05-09T19:28:01.662Z,16.65
2024-05-09T19:30:37.119Z,16.62
2024-05-09T19:33:08.211Z,16.57
2024-05-09T19:35:35.278Z,16.53
2024-05-09T19:38:02.392Z,16.49
2024-05-09T19:40:32.203Z,16.47
2024-05-09T19:43:02.332Z,16.45
2024-05-09T19:45:29.939Z,16.43
2024-05-09T19:47:57.034Z,16.42
2024-05-09T19:50:32.355Z,16.37
2024-05-09T19:53:07.239Z,16.33
2024-05-09T19:55:34.692Z,16.31
2024-05-09T19:58:04.909Z,16.27
2024-05-09T20:00:40.278Z,16.24
2024-05-09T20:03:10.015Z,16.20
2024-05-09T20:05:37.719Z,16.17
2024-05-09T20:08:05.438Z,16.15
2024-05-09T20:10:34.635Z,16.13
2024-05-09T20:13:03.582Z,16.12
2024-05-09T20:15:31.732Z,16.08
2024-05-09T20:17:58.845Z,16.06
2024-05-09T20:20:33.769Z,16.01
2024-05-09T20:23:08.050Z,15.98
2024-05-09T20:25:34.747Z,15.93
2024-05-09T20:28:01.535Z,15.87
2024-05-09T20:30:32.420Z,15.80
2024-05-09T20:33:04.433Z,15.75
2024-05-09T20:35:32.588Z,15.69
2024-05-09T20:37:59.764Z,15.65
2024-05-09T20:40:32.622Z,15.61
2024-05-09T20:43:03.139Z,15.59
2024-05-09T20:45:29.863Z,15.55
2024-05-09T20:47:57.549Z,15.53
2024-05-09T20:50:35.096Z,15.51
2024-05-09T20:53:05.844Z,15.47
2024-05-09T20:55:32.530Z,15.43
2024-05-09T20:57:59.391Z,15.41
2024-05-09T21:00:34.959Z,15.38
2024-05-09T21:03:07.228Z,15.33
2024-05-09T21:05:34.998Z,15.31
2024-05-09T21:08:02.351Z,15.26
2024-05-09T21:10:32.832Z,15.22
2024-05-09T21:13:02.256Z,15.15
2024-05-09T21:15:29.801Z,15.11
2024-05-09T21:17:56.557Z,15.06
2024-05-09T21:20:29.090Z,15.04
2024-05-09T21:22:58.638Z,14.98
2024-05-09T21:25:25.733Z,14.93
2024-05-09T21:27:52.967Z,14.90
2024-05-09T21:30:31.629Z,14.86
2024-05-09T21:33:09.527Z,14.83
2024-05-09T21:35:37.527Z,14.76
2024-05-09T21:38:04.648Z,14.69
2024-05-09T21:40:34.849Z,14.66
2024-05-09T21:43:03.730Z,14.62
2024-05-09T21:45:30.664Z,14.60
2024-05-09T21:47:57.604Z,14.56
2024-05-09T21:50:32.191Z,14.54
2024-05-09T21:53:05.877Z,14.52
2024-05-09T21:55:32.661Z,14.46
2024-05-09T21:57:59.497Z,14.43
2024-05-09T22:00:34.507Z,14.39
2024-05-09T22:03:04.666Z,14.34
2024-05-09T22:05:31.814Z,14.32
2024-05-09T22:07:58.655Z,14.28
2024-05-09T22:10:31.088Z,14.24
2024-05-09T22:13:01.495Z,14.22
2024-05-09T22:15:28.416Z,14.18
2024-05-09T22:17:56.674Z,14.15
2024-05-09T22:20:32.913Z,14.05
2024-05-09T22:23:04.205Z,13.98
2024-05-09T22:25:32.135Z,13.92
2024-05-09T22:28:00.035Z,13.91
2024-05-09T22:30:34.990Z,13.91
2024-05-09T22:33:06.324Z,13.88
2024-05-09T22:35:33.331Z,13.87
2024-05-09T22:38:00.431Z,13.86
2024-05-09T22:42:56.795Z,13.84
2024-05-09T22:45:23.538Z,13.83
2024-05-09T22:47:50.436Z,13.79
2024-05-09T22:50:26.219Z,13.79
2024-05-09T22:52:53.920Z,13.77
2024-05-09T22:55:20.700Z,13.76
2024-05-09T22:57:47.455Z,13.74
2024-05-09T23:00:16.047Z,13.73
2024-05-09T23:02:43.335Z,13.68
2024-05-09T23:05:10.277Z,13.66
2024-05-09T23:07:37.121Z,13.63
2024-05-09T23:10:06.620Z,13.65
2024-05-09T23:12:38.953Z,13.65
2024-05-09T23:15:06.238Z,13.65
2024-05-09T23:17:33.842Z,13.66
2024-05-09T23:20:00.622Z,13.67
2024-05-09T23:22:27.661Z,13.64
2024-05-09T23:24:54.422Z,13.63
2024-05-09T23:27:21.520Z,13.60
2024-05-09T23:29:48.242Z,13.60
2024-05-09T23:32:14.939Z,13.56
2024-05-09T23:34:41.688Z,13.56
2024-05-09T23:37:10.950Z,13.55
2024-05-09T23:39:37.702Z,13.53
2024-05-09T23:42:04.798Z,13.50
2024-05-09T23:44:31.351Z,13.47
2024-05-09T23:46:58.019Z,13.42
2024-05-09T23:49:24.799Z,13.38
2024-05-09T23:51:51.523Z,13.35
2024-05-09T23:54:18.227Z,13.31
2024-05-09T23:56:45.354Z,13.27
2024-05-09T23:59:11.902Z,13.28
